Time,TemperatureF,DewpointF,PressureIn,WindDirection,WindDirectionDegrees,WindSpeedMPH,WindSpeedGustMPH,Humidity,HourlyPrecipIn,Conditions,Clouds,dailyrainin,SolarRadiationWatts/m^2,SoftwareType,DateUTC
2013-07-08 00:02:00,78.0,35.0,-100.00,NE,45,4.0,7.0,21,0.00,,,0.00,0.000000,,2013-07-08 07:02:00,
2013-07-08 00:11:00,78.0,35.0,-100.00,NE,45,4.0,7.0,21,0.00,,,0.00,0.000000,,2013-07-08 07:11:00,
2013-07-08 00:44:00,75.0,31.0,-100.00,NE,54,5.0,8.0,20,0.00,,,0.00,0.000000,,2013-07-08 07:44:00,
2013-07-08 00:53:00,75.0,31.0,-100.00,NE,54,5.0,8.0,20,0.00,,,0.00,0.000000,,2013-07-08 07:53:00,
2013-07-08 01:02:00,75.0,31.0,-100.00,NE,54,5.0,8.0,20,0.00,,,0.00,0.000000,,2013-07-08 08:02:00,
2013-07-08 01:11:00,75.0,31.0,-100.00,NE,54,5.0,8.0,20,0.00,,,0.00,0.000000,,2013-07-08 08:11:00,
2013-07-08 01:42:00,74.0,29.0,-100.00,ENE,61,4.0,8.0,19,0.00,,,0.00,0.000000,,2013-07-08 08:42:00,
2013-07-08 01:53:00,74.0,29.0,-100.00,ENE,61,4.0,8.0,19,0.00,,,0.00,0.000000,,2013-07-08 08:53:00,
2013-07-08 02:01:00,74.0,29.0,-100.00,ENE,61,4.0,8.0,19,0.00,,,0.00,0.000000,,2013-07-08 09:01:00,
2013-07-08 02:11:00,74.0,29.0,-100.00,ENE,61,4.0,8.0,19,0.00,,,0.00,0.000000,,2013-07-08 09:11:00,
2013-07-08 02:43:00,73.0,31.0,-100.00,NE,35,3.0,6.0,21,0.00,,,0.00,0.000000,,2013-07-08 09:43:00,
2013-07-08 02:53:00,73.0,31.0,-100.00,NE,35,3.0,6.0,21,0.00,,,0.00,0.000000,,2013-07-08 09:53:00,
2013-07-08 03:01:00,73.0,31.0,-100.00,NE,35,3.0,6.0,21,0.00,,,0.00,0.000000,,2013-07-08 10:01:00,
2013-07-08 03:11:00,73.0,31.0,-100.00,NE,35,3.0,6.0,21,0.00,,,0.00,0.000000,,2013-07-08 10:11:00,
2013-07-08 03:43:00,74.0,33.0,-100.00,NE,48,4.0,6.0,22,0.00,,,0.00,0.000000,,2013-07-08 10:43:00,
2013-07-08 03:53:00,74.0,33.0,-100.00,NE,48,4.0,6.0,22,0.00,,,0.00,0.000000,,2013-07-08 10:53:00,
2013-07-08 04:02:00,74.0,33.0,-100.00,NE,48,4.0,6.0,22,0.00,,,0.00,0.000000,,2013-07-08 11:02:00,
2013-07-08 04:11:00,74.0,33.0,-100.00,NE,48,4.0,6.0,22,0.00,,,0.00,0.000000,,2013-07-08 11:11:00,
2013-07-08 04:33:00,73.0,32.0,-100.00,NE,51,3.0,6.0,22,0.00,,,0.00,0.000000,,2013-07-08 11:33:00,
2013-07-08 04:43:00,73.0,32.0,-100.00,NE,51,3.0,6.0,22,0.00,,,0.00,0.000000,,2013-07-08 11:43:00,
2013-07-08 04:53:00,73.0,32.0,-100.00,NE,51,3.0,6.0,22,0.00,,,0.00,0.000000,,2013-07-08 11:53:00,
2013-07-08 05:01:00,73.0,32.0,-100.00,NE,51,3.0,6.0,22,0.00,,,0.00,0.000000,,2013-07-08 12:01:00,
2013-07-08 05:11:00,73.0,32.0,-100.00,NE,51,3.0,6.0,22,0.00,,,0.00,0.000000,,2013-07-08 12:11:00,
2013-07-08 05:43:00,72.0,31.0,-100.00,ENE,65,3.0,6.0,22,0.00,,,0.00,0.000000,,2013-07-08 12:43:00,
2013-07-08 05:53:00,72.0,31.0,-100.00,ENE,65,3.0,6.0,22,0.00,,,0.00,0.000000,,2013-07-08 12:53:00,
2013-07-08 06:01:00,72.0,31.0,-100.00,ENE,65,3.0,6.0,22,0.00,,,0.00,0.000000,,2013-07-08 13:01:00,
2013-07-08 06:11:00,72.0,31.0,-100.00,ENE,65,3.0,6.0,22,0.00,,,0.00,0.000000,,2013-07-08 13:11:00,
2013-07-08 06:42:00,71.0,31.0,-100.00,NE,42,3.0,6.0,23,0.00,,,0.00,4.000000,,2013-07-08 13:42:00,
2013-07-08 06:53:00,71.0,31.0,-100.00,NE,42,3.0,6.0,23,0.00,,,0.00,4.000000,,2013-07-08 13:53:00,
2013-07-08 07:01:00,71.0,31.0,-100.00,NE,42,3.0,6.0,23,0.00,,,0.00,4.000000,,2013-07-08 14:01:00,
2013-07-08 07:12:00,71.0,31.0,-100.00,NE,42,3.0,6.0,23,0.00,,,0.00,4.000000,,2013-07-08 14:12:00,
2013-07-08 10:13:00,95.0,34.0,-100.00,WSW,241,5.0,10.0,12,0.00,,,0.00,696.000000,,2013-07-08 17:13:00,
2013-07-08 10:54:00,95.0,34.0,-100.00,WSW,241,5.0,10.0,12,0.00,,,0.00,696.000000,,2013-07-08 17:54:00,
2013-07-08 11:02:00,95.0,34.0,-100.00,WSW,241,5.0,10.0,12,0.00,,,0.00,696.000000,,2013-07-08 18:02:00,
2013-07-08 11:13:00,98.0,30.0,-100.00,SSW,198,5.0,9.0,9,0.00,,,0.00,848.000000,,2013-07-08 18:13:00,
2013-07-08 12:00:00,98.0,30.0,-100.00,SSW,198,5.0,9.0,9,0.00,,,0.00,848.000000,,2013-07-08 19:00:00,
2013-07-08 12:05:00,98.0,30.0,-100.00,SSW,198,5.0,9.0,9,0.00,,,0.00,848.000000,,2013-07-08 19:05:00,
2013-07-08 12:56:00,102.0,30.0,-100.00,WNW,283,5.0,11.0,8,0.00,,,0.00,946.000000,,2013-07-08 19:56:00,
2013-07-08 13:03:00,102.0,30.0,-100.00,WNW,283,5.0,11.0,8,0.00,,,0.00,946.000000,,2013-07-08 20:03:00,
2013-07-08 13:13:00,103.0,30.0,-100.00,West,272,5.0,11.0,8,0.00,,,0.00,985.000000,,2013-07-08 20:13:00,
2013-07-08 13:54:00,103.0,30.0,-100.00,West,272,5.0,11.0,8,0.00,,,0.00,985.000000,,2013-07-08 20:54:00,
2013-07-08 14:05:00,103.0,30.0,-100.00,West,272,5.0,11.0,8,0.00,,,0.00,985.000000,,2013-07-08 21:05:00,
2013-07-08 14:13:00,104.0,37.0,-100.00,West,272,5.0,12.0,10,0.00,,,0.00,966.000000,,2013-07-08 21:13:00,
2013-07-08 14:56:00,104.0,37.0,-100.00,West,272,5.0,12.0,10,0.00,,,0.00,966.000000,,2013-07-08 21:56:00,
2013-07-08 15:06:00,104.0,37.0,-100.00,West,272,5.0,12.0,10,0.00,,,0.00,966.000000,,2013-07-08 22:06:00,
2013-07-08 15:13:00,103.0,43.0,-100.00,West,266,7.0,13.0,13,0.00,,,0.00,892.000000,,2013-07-08 22:13:00,
2013-07-08 16:04:00,103.0,43.0,-100.00,West,266,7.0,13.0,13,0.00,,,0.00,892.000000,,2013-07-08 23:04:00,
2013-07-08 17:04:00,103.0,41.0,-100.00,West,260,7.0,18.0,12,0.00,,,0.00,761.000000,,2013-07-09 00:04:00,
2013-07-08 18:13:00,-999.0,-99.9,-100.00,NW,321,5.0,12.0,12,0.00,,,0.00,392.000000,,2013-07-09 01:13:00,
2013-07-08 18:59:00,101.0,39.0,-100.00,NW,321,5.0,12.0,12,0.00,,,0.00,392.000000,,2013-07-09 01:59:00,
2013-07-08 19:59:00,98.0,35.0,-100.00,WNW,283,4.0,12.0,11,0.00,,,0.00,196.000000,,2013-07-09 02:59:00,
2013-07-08 20:05:00,98.0,35.0,-100.00,WNW,283,4.0,12.0,11,0.00,,,0.00,196.000000,,2013-07-09 03:05:00,
2013-07-08 20:12:00,98.0,35.0,-100.00,WNW,283,4.0,12.0,11,0.00,,,0.00,196.000000,,2013-07-09 03:12:00,
2013-07-08 20:58:00,91.0,33.0,-100.00,SSW,193,2.0,7.0,13,0.00,,,0.00,15.000000,,2013-07-09 03:58:00,
2013-07-08 21:02:00,91.0,33.0,-100.00,SSW,193,2.0,7.0,13,0.00,,,0.00,15.000000,,2013-07-09 04:02:00,
2013-07-08 21:11:00,91.0,33.0,-100.00,SSW,193,2.0,7.0,13,0.00,,,0.00,15.000000,,2013-07-09 04:11:00,
2013-07-08 21:34:00,84.0,36.0,-100.00,NE,50,4.0,7.0,18,0.00,,,0.00,1.000000,,2013-07-09 04:34:00,
2013-07-08 21:43:00,84.0,36.0,-100.00,NE,50,4.0,7.0,18,0.00,,,0.00,1.000000,,2013-07-09 04:43:00,
2013-07-08 21:53:00,84.0,36.0,-100.00,NE,50,4.0,7.0,18,0.00,,,0.00,1.000000,,2013-07-09 04:53:00,
2013-07-08 22:02:00,84.0,36.0,-100.00,NE,50,4.0,7.0,18,0.00,,,0.00,1.000000,,2013-07-09 05:02:00,
2013-07-08 22:11:00,84.0,36.0,-100.00,NE,50,4.0,7.0,18,0.00,,,0.00,1.000000,,2013-07-09 05:11:00,
2013-07-08 22:42:00,81.0,35.0,-100.00,ENE,59,4.0,8.0,19,0.00,,,0.00,0.000000,,2013-07-09 05:42:00,
2013-07-08 22:52:00,81.0,35.0,-100.00,ENE,59,4.0,8.0,19,0.00,,,0.00,0.000000,,2013-07-09 05:52:00,
2013-07-08 23:01:00,81.0,35.0,-100.00,ENE,59,4.0,8.0,19,0.00,,,0.00,0.000000,,2013-07-09 06:01:00,
2013-07-08 23:11:00,81.0,35.0,-100.00,ENE,59,4.0,8.0,19,0.00,,,0.00,0.000000,,2013-07-09 06:11:00,
2013-07-08 23:43:00,79.0,37.0,-100.00,NE,54,5.0,7.0,22,0.00,,,0.00,0.000000,,2013-07-09 06:43:00,
2013-07-08 23:53:00,79.0,37.0,-100.00,NE,54,5.0,7.0,22,0.00,,,0.00,0.000000,,2013-07-09 06:53:00,